sensor_id;sensor_type;location;lat;lon;timestamp;P1;durP1;ratioP1;P2;durP2;ratioP2
13672;SDS011;6909;52.202;9.876;2023-04-01T00:01:25;2.40;;;0.50;;
13672;SDS011;6909;52.202;9.876;2023-04-01T00:03:52;0.30;;;0.10;;
13672;SDS011;6909;52.202;9.876;2023-04-01T00:06:21;0.57;;;0.20;;
13672;SDS011;6909;52.202;9.876;2023-04-01T00:08:48;1.80;;;0.20;;
13672;SDS011;6909;52.202;9.876;2023-04-01T00:11:15;0.53;;;0.40;;
13672;SDS011;6909;52.202;9.876;2023-04-01T00:13:44;0.20;;;0.20;;
13672;SDS011;6909;52.202;9.876;2023-04-01T00:16:11;0.23;;;0.23;;
13672;SDS011;6909;52.202;9.876;2023-04-01T00:18:38;0.10;;;0.10;;
13672;SDS011;6909;52.202;9.876;2023-04-01T00:21:05;1.17;;;0.50;;
13672;SDS011;6909;52.202;9.876;2023-04-01T00:23:32;1.77;;;0.20;;
13672;SDS011;6909;52.202;9.876;2023-04-01T00:26:00;0.27;;;0.10;;
13672;SDS011;6909;52.202;9.876;2023-04-01T00:28:27;1.20;;;0.30;;
13672;SDS011;6909;52.202;9.876;2023-04-01T00:30:55;0.20;;;0.10;;
13672;SDS011;6909;52.202;9.876;2023-04-01T00:33:22;0.37;;;0.10;;
13672;SDS011;6909;52.202;9.876;2023-04-01T00:35:48;0.37;;;0.23;;
13672;SDS011;6909;52.202;9.876;2023-04-01T00:38:15;0.47;;;0.40;;
13672;SDS011;6909;52.202;9.876;2023-04-01T00:40:44;0.30;;;0.30;;
13672;SDS011;6909;52.202;9.876;2023-04-01T00:43:13;0.63;;;0.20;;
13672;SDS011;6909;52.202;9.876;2023-04-01T00:45:43;0.20;;;0.10;;
13672;SDS011;6909;52.202;9.876;2023-04-01T00:48:13;1.93;;;0.43;;
13672;SDS011;6909;52.202;9.876;2023-04-01T00:50:44;0.10;;;0.10;;
13672;SDS011;6909;52.202;9.876;2023-04-01T00:53:14;2.97;;;0.37;;
13672;SDS011;6909;52.202;9.876;2023-04-01T00:55:46;0.93;;;0.77;;
13672;SDS011;6909;52.202;9.876;2023-04-01T00:58:17;0.23;;;0.10;;
13672;SDS011;6909;52.202;9.876;2023-04-01T01:00:47;0.23;;;0.20;;
13672;SDS011;6909;52.202;9.876;2023-04-01T01:03:17;0.10;;;0.10;;
13672;SDS011;6909;52.202;9.876;2023-04-01T01:05:49;0.10;;;0.10;;
13672;SDS011;6909;52.202;9.876;2023-04-01T01:08:32;1.37;;;0.10;;
13672;SDS011;6909;52.202;9.876;2023-04-01T01:11:15;0.00;;;0.00;;
13672;SDS011;6909;52.202;9.876;2023-04-01T01:13:48;0.03;;;0.03;;
13672;SDS011;6909;52.202;9.876;2023-04-01T01:16:22;0.10;;;0.10;;
13672;SDS011;6909;52.202;9.876;2023-04-01T01:18:55;0.40;;;0.20;;
13672;SDS011;6909;52.202;9.876;2023-04-01T01:21:30;0.10;;;0.10;;
13672;SDS011;6909;52.202;9.876;2023-04-01T01:24:13;0.43;;;0.23;;
13672;SDS011;6909;52.202;9.876;2023-04-01T01:26:54;0.30;;;0.20;;
13672;SDS011;6909;52.202;9.876;2023-04-01T01:29:45;0.20;;;0.10;;
13672;SDS011;6909;52.202;9.876;2023-04-01T01:35:32;0.10;;;0.10;;
13672;SDS011;6909;52.202;9.876;2023-04-01T01:38:02;2.50;;;0.30;;
13672;SDS011;6909;52.202;9.876;2023-04-01T01:40:34;0.10;;;0.10;;
13672;SDS011;6909;52.202;9.876;2023-04-01T01:43:04;0.93;;;0.10;;
13672;SDS011;6909;52.202;9.876;2023-04-01T01:45:34;0.10;;;0.10;;
13672;SDS011;6909;52.202;9.876;2023-04-01T01:48:05;0.33;;;0.30;;
13672;SDS011;6909;52.202;9.876;2023-04-01T01:50:35;0.10;;;0.10;;
13672;SDS011;6909;52.202;9.876;2023-04-01T01:53:03;0.90;;;0.30;;
13672;SDS011;6909;52.202;9.876;2023-04-01T01:55:32;0.20;;;0.07;;
13672;SDS011;6909;52.202;9.876;2023-04-01T01:58:01;0.10;;;0.10;;
13672;SDS011;6909;52.202;9.876;2023-04-01T02:00:30;2.27;;;0.53;;
13672;SDS011;6909;52.202;9.876;2023-04-01T02:02:58;0.00;;;0.00;;
13672;SDS011;6909;52.202;9.876;2023-04-01T02:05:26;1.03;;;0.20;;
13672;SDS011;6909;52.202;9.876;2023-04-01T02:07:57;0.07;;;0.07;;
13672;SDS011;6909;52.202;9.876;2023-04-01T02:10:29;5.87;;;0.30;;
13672;SDS011;6909;52.202;9.876;2023-04-01T02:13:00;0.20;;;0.17;;
13672;SDS011;6909;52.202;9.876;2023-04-01T02:15:32;0.43;;;0.17;;
13672;SDS011;6909;52.202;9.876;2023-04-01T02:18:03;0.67;;;0.30;;
13672;SDS011;6909;52.202;9.876;2023-04-01T02:20:31;0.10;;;0.10;;
13672;SDS011;6909;52.202;9.876;2023-04-01T02:23:00;0.00;;;0.00;;
13672;SDS011;6909;52.202;9.876;2023-04-01T02:25:27;0.20;;;0.20;;
13672;SDS011;6909;52.202;9.876;2023-04-01T02:27:56;0.10;;;0.00;;
13672;SDS011;6909;52.202;9.876;2023-04-01T02:30:25;0.10;;;0.10;;
13672;SDS011;6909;52.202;9.876;2023-04-01T02:32:54;0.10;;;0.10;;
13672;SDS011;6909;52.202;9.876;2023-04-01T02:35:22;0.10;;;0.00;;
13672;SDS011;6909;52.202;9.876;2023-04-01T02:37:49;0.30;;;0.27;;
13672;SDS011;6909;52.202;9.876;2023-04-01T02:40:19;0.73;;;0.20;;
13672;SDS011;6909;52.202;9.876;2023-04-01T02:42:46;0.23;;;0.20;;
13672;SDS011;6909;52.202;9.876;2023-04-01T02:45:13;0.63;;;0.20;;
13672;SDS011;6909;52.202;9.876;2023-04-01T02:47:40;0.23;;;0.10;;
13672;SDS011;6909;52.202;9.876;2023-04-01T02:50:07;1.23;;;0.10;;
13672;SDS011;6909;52.202;9.876;2023-04-01T02:52:34;0.10;;;0.10;;
13672;SDS011;6909;52.202;9.876;2023-04-01T02:55:02;2.17;;;0.50;;
13672;SDS011;6909;52.202;9.876;2023-04-01T02:57:31;0.10;;;0.10;;
13672;SDS011;6909;52.202;9.876;2023-04-01T02:59:57;0.93;;;0.13;;
13672;SDS011;6909;52.202;9.876;2023-04-01T03:02:24;0.67;;;0.17;;
13672;SDS011;6909;52.202;9.876;2023-04-01T03:04:51;2.40;;;0.10;;
13672;SDS011;6909;52.202;9.876;2023-04-01T03:07:18;0.13;;;0.13;;
13672;SDS011;6909;52.202;9.876;2023-04-01T03:09:45;0.30;;;0.30;;
13672;SDS011;6909;52.202;9.876;2023-04-01T03:12:11;0.10;;;0.10;;
13672;SDS011;6909;52.202;9.876;2023-04-01T03:14:39;1.40;;;0.07;;
13672;SDS011;6909;52.202;9.876;2023-04-01T03:17:06;1.13;;;0.27;;
13672;SDS011;6909;52.202;9.876;2023-04-01T03:19:33;0.30;;;0.30;;
13672;SDS011;6909;52.202;9.876;2023-04-01T03:21:59;0.10;;;0.10;;
13672;SDS011;6909;52.202;9.876;2023-04-01T03:24:26;0.10;;;0.10;;
13672;SDS011;6909;52.202;9.876;2023-04-01T03:26:53;0.23;;;0.00;;
13672;SDS011;6909;52.202;9.876;2023-04-01T03:29:19;0.20;;;0.20;;
13672;SDS011;6909;52.202;9.876;2023-04-01T03:31:47;0.20;;;0.10;;
13672;SDS011;6909;52.202;9.876;2023-04-01T03:34:14;0.27;;;0.10;;
13672;SDS011;6909;52.202;9.876;2023-04-01T03:36:41;0.20;;;0.20;;
13672;SDS011;6909;52.202;9.876;2023-04-01T03:39:07;0.20;;;0.10;;
13672;SDS011;6909;52.202;9.876;2023-04-01T03:41:35;0.83;;;0.10;;
13672;SDS011;6909;52.202;9.876;2023-04-01T03:44:02;0.10;;;0.10;;
13672;SDS011;6909;52.202;9.876;2023-04-01T03:46:29;0.03;;;0.03;;
13672;SDS011;6909;52.202;9.876;2023-04-01T03:48:57;0.00;;;0.00;;
13672;SDS011;6909;52.202;9.876;2023-04-01T03:51:24;0.47;;;0.40;;
13672;SDS011;6909;52.202;9.876;2023-04-01T03:53:50;0.10;;;0.10;;
13672;SDS011;6909;52.202;9.876;2023-04-01T03:56:17;0.20;;;0.20;;
13672;SDS011;6909;52.202;9.876;2023-04-01T03:58:44;0.57;;;0.27;;
13672;SDS011;6909;52.202;9.876;2023-04-01T04:01:14;0.10;;;0.10;;
13672;SDS011;6909;52.202;9.876;2023-04-01T04:03:42;1.60;;;0.10;;
13672;SDS011;6909;52.202;9.876;2023-04-01T04:06:12;0.10;;;0.10;;
13672;SDS011;6909;52.202;9.876;2023-04-01T04:08:39;0.20;;;0.10;;
13672;SDS011;6909;52.202;9.876;2023-04-01T04:11:06;0.00;;;0.00;;
13672;SDS011;6909;52.202;9.876;2023-04-01T04:13:33;0.03;;;0.00;;
13672;SDS011;6909;52.202;9.876;2023-04-01T04:16:01;0.00;;;0.00;;
13672;SDS011;6909;52.202;9.876;2023-04-01T04:18:27;0.20;;;0.10;;
13672;SDS011;6909;52.202;9.876;2023-04-01T04:20:54;0.00;;;0.00;;
13672;SDS011;6909;52.202;9.876;2023-04-01T04:23:23;2.30;;;0.20;;
13672;SDS011;6909;52.202;9.876;2023-04-01T04:25:53;0.30;;;0.20;;
13672;SDS011;6909;52.202;9.876;2023-04-01T04:28:21;0.60;;;0.03;;
13672;SDS011;6909;52.202;9.876;2023-04-01T04:30:48;0.17;;;0.17;;
13672;SDS011;6909;52.202;9.876;2023-04-01T04:33:15;0.20;;;0.20;;
13672;SDS011;6909;52.202;9.876;2023-04-01T04:35:41;0.10;;;0.10;;
13672;SDS011;6909;52.202;9.876;2023-04-01T04:38:08;0.70;;;0.23;;
13672;SDS011;6909;52.202;9.876;2023-04-01T04:40:40;0.50;;;0.20;;
13672;SDS011;6909;52.202;9.876;2023-04-01T04:43:09;0.20;;;0.20;;
13672;SDS011;6909;52.202;9.876;2023-04-01T04:45:36;0.00;;;0.00;;
13672;SDS011;6909;52.202;9.876;2023-04-01T04:48:03;0.20;;;0.07;;
13672;SDS011;6909;52.202;9.876;2023-04-01T04:50:30;0.53;;;0.30;;
13672;SDS011;6909;52.202;9.876;2023-04-01T04:52:57;0.97;;;0.20;;
13672;SDS011;6909;52.202;9.876;2023-04-01T04:55:23;0.30;;;0.20;;
13672;SDS011;6909;52.202;9.876;2023-04-01T04:57:51;0.23;;;0.10;;
13672;SDS011;6909;52.202;9.876;2023-04-01T05:00:18;0.10;;;0.10;;
13672;SDS011;6909;52.202;9.876;2023-04-01T05:02:45;1.20;;;0.20;;
13672;SDS011;6909;52.202;9.876;2023-04-01T05:05:12;0.10;;;0.10;;
13672;SDS011;6909;52.202;9.876;2023-04-01T05:07:39;1.17;;;0.10;;
13672;SDS011;6909;52.202;9.876;2023-04-01T05:10:06;0.57;;;0.10;;
13672;SDS011;6909;52.202;9.876;2023-04-01T05:12:33;0.10;;;0.10;;
13672;SDS011;6909;52.202;9.876;2023-04-01T05:15:04;0.10;;;0.10;;
13672;SDS011;6909;52.202;9.876;2023-04-01T05:17:31;3.83;;;0.20;;
13672;SDS011;6909;52.202;9.876;2023-04-01T05:19:58;0.20;;;0.20;;
13672;SDS011;6909;52.202;9.876;2023-04-01T05:22:25;0.57;;;0.20;;
13672;SDS011;6909;52.202;9.876;2023-04-01T05:24:52;0.13;;;0.13;;
13672;SDS011;6909;52.202;9.876;2023-04-01T05:27:18;0.30;;;0.20;;
13672;SDS011;6909;52.202;9.876;2023-04-01T05:29:45;0.10;;;0.10;;
13672;SDS011;6909;52.202;9.876;2023-04-01T05:32:13;0.10;;;0.10;;
13672;SDS011;6909;52.202;9.876;2023-04-01T05:34:40;0.13;;;0.13;;
13672;SDS011;6909;52.202;9.876;2023-04-01T05:37:07;0.13;;;0.10;;
13672;SDS011;6909;52.202;9.876;2023-04-01T05:39:35;0.10;;;0.10;;
13672;SDS011;6909;52.202;9.876;2023-04-01T05:42:02;0.57;;;0.27;;
13672;SDS011;6909;52.202;9.876;2023-04-01T05:44:31;0.10;;;0.10;;
13672;SDS011;6909;52.202;9.876;2023-04-01T05:46:57;0.63;;;0.50;;
13672;SDS011;6909;52.202;9.876;2023-04-01T05:49:25;0.73;;;0.20;;
13672;SDS011;6909;52.202;9.876;2023-04-01T05:51:52;0.30;;;0.30;;
13672;SDS011;6909;52.202;9.876;2023-04-01T05:54:19;2.53;;;0.40;;
13672;SDS011;6909;52.202;9.876;2023-04-01T05:56:46;0.17;;;0.17;;
13672;SDS011;6909;52.202;9.876;2023-04-01T05:59:13;1.20;;;0.63;;
13672;SDS011;6909;52.202;9.876;2023-04-01T06:01:39;0.40;;;0.30;;
13672;SDS011;6909;52.202;9.876;2023-04-01T06:04:06;0.53;;;0.33;;
13672;SDS011;6909;52.202;9.876;2023-04-01T06:06:37;0.37;;;0.20;;
13672;SDS011;6909;52.202;9.876;2023-04-01T06:09:07;3.60;;;0.40;;
13672;SDS011;6909;52.202;9.876;2023-04-01T06:11:40;1.13;;;0.20;;
13672;SDS011;6909;52.202;9.876;2023-04-01T06:14:19;0.37;;;0.13;;
13672;SDS011;6909;52.202;9.876;2023-04-01T06:17:00;0.10;;;0.10;;
13672;SDS011;6909;52.202;9.876;2023-04-01T06:19:39;0.43;;;0.20;;
13672;SDS011;6909;52.202;9.876;2023-04-01T06:25:16;0.20;;;0.20;;
13672;SDS011;6909;52.202;9.876;2023-04-01T06:28:04;0.20;;;0.20;;
13672;SDS011;6909;52.202;9.876;2023-04-01T06:30:49;0.50;;;0.30;;
13672;SDS011;6909;52.202;9.876;2023-04-01T06:33:29;0.03;;;0.03;;
13672;SDS011;6909;52.202;9.876;2023-04-01T06:36:23;0.87;;;0.30;;
13672;SDS011;6909;52.202;9.876;2023-04-01T06:39:19;2.47;;;0.30;;
13672;SDS011;6909;52.202;9.876;2023-04-01T06:42:06;0.30;;;0.30;;
13672;SDS011;6909;52.202;9.876;2023-04-01T06:44:49;3.03;;;0.60;;
13672;SDS011;6909;52.202;9.876;2023-04-01T06:47:35;0.13;;;0.13;;
13672;SDS011;6909;52.202;9.876;2023-04-01T06:50:14;3.43;;;0.53;;
13672;SDS011;6909;52.202;9.876;2023-04-01T06:52:52;1.70;;;0.23;;
13672;SDS011;6909;52.202;9.876;2023-04-01T06:55:29;0.10;;;0.10;;
13672;SDS011;6909;52.202;9.876;2023-04-01T06:58:03;0.70;;;0.20;;
13672;SDS011;6909;52.202;9.876;2023-04-01T07:00:32;0.20;;;0.20;;
13672;SDS011;6909;52.202;9.876;2023-04-01T07:03:04;2.20;;;0.10;;
13672;SDS011;6909;52.202;9.876;2023-04-01T07:05:36;0.20;;;0.10;;
13672;SDS011;6909;52.202;9.876;2023-04-01T07:08:03;0.20;;;0.10;;
13672;SDS011;6909;52.202;9.876;2023-04-01T07:10:38;2.43;;;0.37;;
13672;SDS011;6909;52.202;9.876;2023-04-01T07:13:12;0.87;;;0.30;;
13672;SDS011;6909;52.202;9.876;2023-04-01T07:15:43;0.20;;;0.20;;
13672;SDS011;6909;52.202;9.876;2023-04-01T07:18:21;0.60;;;0.20;;
13672;SDS011;6909;52.202;9.876;2023-04-01T07:20:54;0.73;;;0.17;;
13672;SDS011;6909;52.202;9.876;2023-04-01T07:23:23;0.50;;;0.20;;
13672;SDS011;6909;52.202;9.876;2023-04-01T07:25:55;0.67;;;0.40;;
13672;SDS011;6909;52.202;9.876;2023-04-01T07:28:26;0.20;;;0.20;;
13672;SDS011;6909;52.202;9.876;2023-04-01T07:31:00;0.10;;;0.10;;
13672;SDS011;6909;52.202;9.876;2023-04-01T07:33:35;0.20;;;0.20;;
13672;SDS011;6909;52.202;9.876;2023-04-01T07:36:08;0.10;;;0.10;;
13672;SDS011;6909;52.202;9.876;2023-04-01T07:38:42;0.40;;;0.17;;
13672;SDS011;6909;52.202;9.876;2023-04-01T07:41:25;0.20;;;0.20;;
13672;SDS011;6909;52.202;9.876;2023-04-01T07:44:01;0.40;;;0.20;;
13672;SDS011;6909;52.202;9.876;2023-04-01T07:46:47;0.00;;;0.00;;
13672;SDS011;6909;52.202;9.876;2023-04-01T07:49:22;0.17;;;0.17;;
13672;SDS011;6909;52.202;9.876;2023-04-01T07:52:00;0.40;;;0.10;;
13672;SDS011;6909;52.202;9.876;2023-04-01T07:54:32;0.97;;;0.20;;
13672;SDS011;6909;52.202;9.876;2023-04-01T07:57:15;0.27;;;0.00;;
13672;SDS011;6909;52.202;9.876;2023-04-01T07:59:47;0.60;;;0.33;;
13672;SDS011;6909;52.202;9.876;2023-04-01T08:02:26;0.10;;;0.10;;
13672;SDS011;6909;52.202;9.876;2023-04-01T08:05:02;0.60;;;0.10;;
13672;SDS011;6909;52.202;9.876;2023-04-01T08:07:36;0.77;;;0.77;;
13672;SDS011;6909;52.202;9.876;2023-04-01T08:10:12;0.10;;;0.10;;
13672;SDS011;6909;52.202;9.876;2023-04-01T08:12:50;0.20;;;0.20;;
13672;SDS011;6909;52.202;9.876;2023-04-01T08:15:23;0.10;;;0.10;;
13672;SDS011;6909;52.202;9.876;2023-04-01T08:17:58;0.00;;;0.00;;
13672;SDS011;6909;52.202;9.876;2023-04-01T08:20:34;1.33;;;0.20;;
13672;SDS011;6909;52.202;9.876;2023-04-01T08:23:07;0.10;;;0.10;;
13672;SDS011;6909;52.202;9.876;2023-04-01T08:25:42;0.10;;;0.10;;
13672;SDS011;6909;52.202;9.876;2023-04-01T08:28:17;0.10;;;0.10;;
13672;SDS011;6909;52.202;9.876;2023-04-01T08:30:50;0.00;;;0.00;;
13672;SDS011;6909;52.202;9.876;2023-04-01T08:33:21;0.53;;;0.30;;
13672;SDS011;6909;52.202;9.876;2023-04-01T08:35:51;0.40;;;0.20;;
13672;SDS011;6909;52.202;9.876;2023-04-01T08:38:23;0.20;;;0.20;;
13672;SDS011;6909;52.202;9.876;2023-04-01T08:40:58;0.20;;;0.10;;
13672;SDS011;6909;52.202;9.876;2023-04-01T08:47:07;0.40;;;0.20;;
13672;SDS011;6909;52.202;9.876;2023-04-01T08:49:52;0.10;;;0.10;;
13672;SDS011;6909;52.202;9.876;2023-04-01T08:52:45;0.67;;;0.20;;
13672;SDS011;6909;52.202;9.876;2023-04-01T08:55:26;0.10;;;0.10;;
13672;SDS011;6909;52.202;9.876;2023-04-01T08:58:16;0.70;;;0.20;;
13672;SDS011;6909;52.202;9.876;2023-04-01T09:01:03;0.10;;;0.10;;
13672;SDS011;6909;52.202;9.876;2023-04-01T09:03:50;0.20;;;0.20;;
13672;SDS011;6909;52.202;9.876;2023-04-01T09:06:36;0.10;;;0.10;;
13672;SDS011;6909;52.202;9.876;2023-04-01T09:09:23;0.10;;;0.10;;
13672;SDS011;6909;52.202;9.876;2023-04-01T09:12:11;0.40;;;0.10;;
13672;SDS011;6909;52.202;9.876;2023-04-01T09:14:54;0.10;;;0.10;;
13672;SDS011;6909;52.202;9.876;2023-04-01T09:17:50;0.30;;;0.20;;
13672;SDS011;6909;52.202;9.876;2023-04-01T09:20:42;0.27;;;0.20;;
13672;SDS011;6909;52.202;9.876;2023-04-01T09:23:38;0.07;;;0.07;;
13672;SDS011;6909;52.202;9.876;2023-04-01T09:26:42;0.43;;;0.10;;
13672;SDS011;6909;52.202;9.876;2023-04-01T09:29:21;0.10;;;0.10;;
13672;SDS011;6909;52.202;9.876;2023-04-01T09:34:53;0.40;;;0.00;;
13672;SDS011;6909;52.202;9.876;2023-04-01T09:37:21;0.30;;;0.30;;
13672;SDS011;6909;52.202;9.876;2023-04-01T09:40:13;0.37;;;0.10;;
13672;SDS011;6909;52.202;9.876;2023-04-01T09:42:44;3.00;;;0.83;;
13672;SDS011;6909;52.202;9.876;2023-04-01T09:48:15;1.30;;;0.10;;
13672;SDS011;6909;52.202;9.876;2023-04-01T09:50:55;0.10;;;0.10;;
13672;SDS011;6909;52.202;9.876;2023-04-01T09:53:30;0.10;;;0.07;;
13672;SDS011;6909;52.202;9.876;2023-04-01T10:05:30;0.63;;;0.20;;
13672;SDS011;6909;52.202;9.876;2023-04-01T10:08:24;0.10;;;0.10;;
13672;SDS011;6909;52.202;9.876;2023-04-01T10:11:28;0.00;;;0.00;;
13672;SDS011;6909;52.202;9.876;2023-04-01T10:14:30;0.43;;;0.10;;
13672;SDS011;6909;52.202;9.876;2023-04-01T10:17:25;0.10;;;0.10;;
13672;SDS011;6909;52.202;9.876;2023-04-01T10:20:16;0.57;;;0.30;;
13672;SDS011;6909;52.202;9.876;2023-04-01T10:29:30;0.43;;;0.20;;
13672;SDS011;6909;52.202;9.876;2023-04-01T10:35:22;1.23;;;0.20;;
13672;SDS011;6909;52.202;9.876;2023-04-01T10:38:25;0.00;;;0.00;;
13672;SDS011;6909;52.202;9.876;2023-04-01T10:41:35;0.20;;;0.20;;
13672;SDS011;6909;52.202;9.876;2023-04-01T10:44:24;0.10;;;0.10;;
13672;SDS011;6909;52.202;9.876;2023-04-01T10:47:21;0.00;;;0.00;;
13672;SDS011;6909;52.202;9.876;2023-04-01T10:50:34;0.93;;;0.17;;
13672;SDS011;6909;52.202;9.876;2023-04-01T10:53:25;0.50;;;0.20;;
13672;SDS011;6909;52.202;9.876;2023-04-01T10:56:29;1.37;;;0.20;;
13672;SDS011;6909;52.202;9.876;2023-04-01T10:59:27;0.53;;;0.20;;
13672;SDS011;6909;52.202;9.876;2023-04-01T11:11:28;0.87;;;0.20;;
13672;SDS011;6909;52.202;9.876;2023-04-01T11:17:42;0.53;;;0.10;;
13672;SDS011;6909;52.202;9.876;2023-04-01T11:23:28;0.20;;;0.20;;
13672;SDS011;6909;52.202;9.876;2023-04-01T11:26:13;0.10;;;0.10;;
13672;SDS011;6909;52.202;9.876;2023-04-01T11:29:09;0.20;;;0.20;;
13672;SDS011;6909;52.202;9.876;2023-04-01T11:31:55;0.20;;;0.20;;
13672;SDS011;6909;52.202;9.876;2023-04-01T11:34:32;0.60;;;0.30;;
13672;SDS011;6909;52.202;9.876;2023-04-01T11:37:12;0.27;;;0.20;;
13672;SDS011;6909;52.202;9.876;2023-04-01T11:39:58;0.57;;;0.20;;
13672;SDS011;6909;52.202;9.876;2023-04-01T11:42:34;0.20;;;0.20;;
13672;SDS011;6909;52.202;9.876;2023-04-01T11:45:18;1.30;;;0.57;;
13672;SDS011;6909;52.202;9.876;2023-04-01T11:48:12;0.10;;;0.10;;
13672;SDS011;6909;52.202;9.876;2023-04-01T11:50:51;0.23;;;0.20;;
13672;SDS011;6909;52.202;9.876;2023-04-01T11:53:32;0.10;;;0.10;;
13672;SDS011;6909;52.202;9.876;2023-04-01T11:56:09;0.20;;;0.20;;
13672;SDS011;6909;52.202;9.876;2023-04-01T11:58:57;0.20;;;0.20;;
13672;SDS011;6909;52.202;9.876;2023-04-01T12:01:35;0.27;;;0.10;;
13672;SDS011;6909;52.202;9.876;2023-04-01T12:04:17;0.10;;;0.10;;
13672;SDS011;6909;52.202;9.876;2023-04-01T12:07:11;0.10;;;0.10;;
13672;SDS011;6909;52.202;9.876;2023-04-01T12:09:47;0.13;;;0.10;;
13672;SDS011;6909;52.202;9.876;2023-04-01T12:12:23;0.20;;;0.10;;
13672;SDS011;6909;52.202;9.876;2023-04-01T12:15:00;1.27;;;0.30;;
13672;SDS011;6909;52.202;9.876;2023-04-01T12:17:42;0.27;;;0.20;;
13672;SDS011;6909;52.202;9.876;2023-04-01T12:20:29;0.20;;;0.20;;
13672;SDS011;6909;52.202;9.876;2023-04-01T12:23:06;0.00;;;0.00;;
13672;SDS011;6909;52.202;9.876;2023-04-01T12:25:52;0.40;;;0.40;;
13672;SDS011;6909;52.202;9.876;2023-04-01T12:28:41;0.50;;;0.20;;
13672;SDS011;6909;52.202;9.876;2023-04-01T12:31:19;0.10;;;0.10;;
13672;SDS011;6909;52.202;9.876;2023-04-01T12:34:08;0.20;;;0.20;;
13672;SDS011;6909;52.202;9.876;2023-04-01T12:36:52;0.10;;;0.10;;
13672;SDS011;6909;52.202;9.876;2023-04-01T12:39:33;0.50;;;0.20;;
13672;SDS011;6909;52.202;9.876;2023-04-01T12:45:29;0.10;;;0.10;;
13672;SDS011;6909;52.202;9.876;2023-04-01T12:48:01;0.30;;;0.20;;
13672;SDS011;6909;52.202;9.876;2023-04-01T12:50:53;0.10;;;0.10;;
13672;SDS011;6909;52.202;9.876;2023-04-01T12:53:53;0.10;;;0.10;;
13672;SDS011;6909;52.202;9.876;2023-04-01T12:56:49;0.10;;;0.10;;
13672;SDS011;6909;52.202;9.876;2023-04-01T12:59:31;0.10;;;0.10;;
13672;SDS011;6909;52.202;9.876;2023-04-01T13:02:11;0.10;;;0.10;;
13672;SDS011;6909;52.202;9.876;2023-04-01T13:07:54;0.20;;;0.20;;
13672;SDS011;6909;52.202;9.876;2023-04-01T13:10:31;0.20;;;0.20;;
13672;SDS011;6909;52.202;9.876;2023-04-01T13:13:21;0.17;;;0.17;;
13672;SDS011;6909;52.202;9.876;2023-04-01T13:16:17;0.20;;;0.20;;
13672;SDS011;6909;52.202;9.876;2023-04-01T13:18:52;0.60;;;0.30;;
13672;SDS011;6909;52.202;9.876;2023-04-01T13:21:26;0.60;;;0.30;;
13672;SDS011;6909;52.202;9.876;2023-04-01T13:24:08;0.10;;;0.10;;
13672;SDS011;6909;52.202;9.876;2023-04-01T13:26:43;0.20;;;0.20;;
13672;SDS011;6909;52.202;9.876;2023-04-01T13:29:20;0.10;;;0.10;;
13672;SDS011;6909;52.202;9.876;2023-04-01T13:32:00;0.10;;;0.10;;
13672;SDS011;6909;52.202;9.876;2023-04-01T13:34:35;0.50;;;0.20;;
13672;SDS011;6909;52.202;9.876;2023-04-01T13:37:16;0.10;;;0.10;;
13672;SDS011;6909;52.202;9.876;2023-04-01T13:39:56;0.23;;;0.23;;
13672;SDS011;6909;52.202;9.876;2023-04-01T13:42:45;0.50;;;0.23;;
13672;SDS011;6909;52.202;9.876;2023-04-01T13:45:17;0.30;;;0.30;;
13672;SDS011;6909;52.202;9.876;2023-04-01T13:47:57;0.40;;;0.40;;
13672;SDS011;6909;52.202;9.876;2023-04-01T13:50:42;0.57;;;0.53;;
13672;SDS011;6909;52.202;9.876;2023-04-01T13:53:25;0.30;;;0.30;;
13672;SDS011;6909;52.202;9.876;2023-04-01T13:56:16;0.43;;;0.40;;
13672;SDS011;6909;52.202;9.876;2023-04-01T13:59:06;0.20;;;0.20;;
13672;SDS011;6909;52.202;9.876;2023-04-01T14:02:07;0.77;;;0.30;;
13672;SDS011;6909;52.202;9.876;2023-04-01T14:04:58;0.10;;;0.10;;
13672;SDS011;6909;52.202;9.876;2023-04-01T14:07:41;0.20;;;0.20;;
13672;SDS011;6909;52.202;9.876;2023-04-01T14:10:20;0.10;;;0.10;;
13672;SDS011;6909;52.202;9.876;2023-04-01T14:12:58;0.30;;;0.30;;
13672;SDS011;6909;52.202;9.876;2023-04-01T14:15:41;0.20;;;0.20;;
13672;SDS011;6909;52.202;9.876;2023-04-01T14:21:27;0.80;;;0.30;;
13672;SDS011;6909;52.202;9.876;2023-04-01T14:24:06;0.70;;;0.50;;
13672;SDS011;6909;52.202;9.876;2023-04-01T14:27:01;0.30;;;0.30;;
13672;SDS011;6909;52.202;9.876;2023-04-01T14:29:47;1.37;;;0.53;;
13672;SDS011;6909;52.202;9.876;2023-04-01T14:32:25;1.00;;;0.60;;
13672;SDS011;6909;52.202;9.876;2023-04-01T14:35:09;1.27;;;0.60;;
13672;SDS011;6909;52.202;9.876;2023-04-01T14:37:55;0.77;;;0.57;;
13672;SDS011;6909;52.202;9.876;2023-04-01T14:40:34;0.90;;;0.73;;
13672;SDS011;6909;52.202;9.876;2023-04-01T14:43:20;3.30;;;0.90;;
13672;SDS011;6909;52.202;9.876;2023-04-01T14:46:22;0.87;;;0.47;;
13672;SDS011;6909;52.202;9.876;2023-04-01T14:48:59;1.00;;;0.63;;
13672;SDS011;6909;52.202;9.876;2023-04-01T14:51:29;0.67;;;0.67;;
13672;SDS011;6909;52.202;9.876;2023-04-01T14:54:04;0.50;;;0.50;;
13672;SDS011;6909;52.202;9.876;2023-04-01T14:56:37;0.50;;;0.50;;
13672;SDS011;6909;52.202;9.876;2023-04-01T14:59:07;0.30;;;0.30;;
13672;SDS011;6909;52.202;9.876;2023-04-01T15:01:40;0.60;;;0.60;;
13672;SDS011;6909;52.202;9.876;2023-04-01T15:04:21;0.50;;;0.50;;
13672;SDS011;6909;52.202;9.876;2023-04-01T15:10:12;3.87;;;0.90;;
13672;SDS011;6909;52.202;9.876;2023-04-01T15:13:05;1.13;;;0.90;;
13672;SDS011;6909;52.202;9.876;2023-04-01T15:15:41;0.50;;;0.50;;
13672;SDS011;6909;52.202;9.876;2023-04-01T15:18:24;0.87;;;0.87;;
13672;SDS011;6909;52.202;9.876;2023-04-01T15:21:03;0.83;;;0.83;;
13672;SDS011;6909;52.202;9.876;2023-04-01T15:23:44;1.03;;;0.80;;
13672;SDS011;6909;52.202;9.876;2023-04-01T15:29:28;0.20;;;0.20;;
13672;SDS011;6909;52.202;9.876;2023-04-01T15:32:04;2.20;;;0.80;;
13672;SDS011;6909;52.202;9.876;2023-04-01T15:34:43;0.40;;;0.30;;
13672;SDS011;6909;52.202;9.876;2023-04-01T15:37:20;0.20;;;0.20;;
13672;SDS011;6909;52.202;9.876;2023-04-01T15:39:54;0.40;;;0.37;;
13672;SDS011;6909;52.202;9.876;2023-04-01T15:42:31;0.90;;;0.60;;
13672;SDS011;6909;52.202;9.876;2023-04-01T15:45:12;0.60;;;0.60;;
13672;SDS011;6909;52.202;9.876;2023-04-01T15:47:45;0.90;;;0.53;;
13672;SDS011;6909;52.202;9.876;2023-04-01T15:50:23;1.40;;;0.80;;
13672;SDS011;6909;52.202;9.876;2023-04-01T15:52:57;0.80;;;0.60;;
13672;SDS011;6909;52.202;9.876;2023-04-01T15:55:43;0.90;;;0.83;;
13672;SDS011;6909;52.202;9.876;2023-04-01T15:58:21;1.40;;;0.93;;
13672;SDS011;6909;52.202;9.876;2023-04-01T16:01:01;1.17;;;0.90;;
13672;SDS011;6909;52.202;9.876;2023-04-01T16:03:42;0.77;;;0.70;;
13672;SDS011;6909;52.202;9.876;2023-04-01T16:06:24;0.80;;;0.60;;
13672;SDS011;6909;52.202;9.876;2023-04-01T16:09:06;0.87;;;0.73;;
13672;SDS011;6909;52.202;9.876;2023-04-01T16:11:48;0.90;;;0.77;;
13672;SDS011;6909;52.202;9.876;2023-04-01T16:14:26;0.80;;;0.70;;
13672;SDS011;6909;52.202;9.876;2023-04-01T16:17:03;1.37;;;0.90;;
13672;SDS011;6909;52.202;9.876;2023-04-01T16:19:41;0.63;;;0.63;;
13672;SDS011;6909;52.202;9.876;2023-04-01T16:22:19;1.80;;;1.13;;
13672;SDS011;6909;52.202;9.876;2023-04-01T16:24:51;1.17;;;1.07;;
13672;SDS011;6909;52.202;9.876;2023-04-01T16:27:24;0.60;;;0.60;;
13672;SDS011;6909;52.202;9.876;2023-04-01T16:29:56;1.07;;;0.97;;
13672;SDS011;6909;52.202;9.876;2023-04-01T16:32:31;1.60;;;0.77;;
13672;SDS011;6909;52.202;9.876;2023-04-01T16:35:10;0.40;;;0.40;;
13672;SDS011;6909;52.202;9.876;2023-04-01T16:37:55;0.53;;;0.53;;
13672;SDS011;6909;52.202;9.876;2023-04-01T16:40:34;0.73;;;0.30;;
13672;SDS011;6909;52.202;9.876;2023-04-01T16:43:10;0.70;;;0.70;;
13672;SDS011;6909;52.202;9.876;2023-04-01T16:45:42;0.77;;;0.77;;
13672;SDS011;6909;52.202;9.876;2023-04-01T16:48:14;0.73;;;0.73;;
13672;SDS011;6909;52.202;9.876;2023-04-01T16:50:51;0.50;;;0.50;;
13672;SDS011;6909;52.202;9.876;2023-04-01T16:53:34;0.50;;;0.50;;
13672;SDS011;6909;52.202;9.876;2023-04-01T16:56:07;1.80;;;0.40;;
13672;SDS011;6909;52.202;9.876;2023-04-01T16:58:40;0.63;;;0.50;;
13672;SDS011;6909;52.202;9.876;2023-04-01T17:01:11;0.97;;;0.87;;